createdAt,value
2022-11-25T00:00:47.548Z,4.43
2022-11-25T00:01:49.548Z,5.00
2022-11-25T00:02:51.426Z,4.70
2022-11-25T00:03:54.085Z,4.83
2022-11-25T00:04:55.418Z,6.30
2022-11-25T00:05:56.740Z,5.73
2022-11-25T00:06:58.061Z,5.57
2022-11-25T00:07:59.367Z,5.03
2022-11-25T00:09:03.121Z,5.50
2022-11-25T00:10:05.203Z,5.23
2022-11-25T00:11:06.806Z,4.13
2022-11-25T00:12:08.193Z,4.60
2022-11-25T00:13:09.654Z,4.73
2022-11-25T00:14:12.883Z,4.20
2022-11-25T00:15:14.287Z,4.20
2022-11-25T00:16:16.983Z,4.37
2022-11-25T00:17:18.574Z,4.20
2022-11-25T00:18:19.906Z,4.57
2022-11-25T00:19:21.297Z,4.90
2022-11-25T00:20:22.698Z,4.40
2022-11-25T00:21:25.418Z,4.47
2022-11-25T00:22:26.823Z,4.00
2022-11-25T00:23:33.135Z,3.87
2022-11-25T00:24:35.168Z,3.73
2022-11-25T00:25:36.800Z,4.10
2022-11-25T00:26:38.237Z,4.30
2022-11-25T00:27:39.591Z,3.97
2022-11-25T00:28:42.120Z,4.07
2022-11-25T00:29:43.794Z,4.07
2022-11-25T00:30:45.364Z,3.67
2022-11-25T00:31:46.719Z,3.93
2022-11-25T00:32:48.228Z,4.30
2022-11-25T00:33:50.170Z,4.57
2022-11-25T00:34:51.491Z,4.40
2022-11-25T00:35:52.795Z,4.10
2022-11-25T00:36:54.133Z,3.90
2022-11-25T00:37:56.191Z,4.10
2022-11-25T00:38:59.019Z,3.90
2022-11-25T00:40:00.560Z,3.80
2022-11-25T00:41:20.485Z,3.93
2022-11-25T00:42:40.443Z,4.10
2022-11-25T00:44:00.196Z,4.50
2022-11-25T00:45:01.608Z,4.30
2022-11-25T00:46:03.053Z,4.00
2022-11-25T00:47:30.479Z,4.13
2022-11-25T00:48:31.878Z,3.87
2022-11-25T00:49:33.240Z,4.00
2022-11-25T00:50:34.573Z,4.13
2022-11-25T00:51:35.876Z,4.23
2022-11-25T00:52:37.390Z,4.40
2022-11-25T00:53:38.758Z,4.30
2022-11-25T00:54:40.441Z,4.53
2022-11-25T00:56:00.497Z,4.10
2022-11-25T00:57:01.863Z,3.67
2022-11-25T00:58:04.440Z,3.40
2022-11-25T00:59:05.881Z,3.67
2022-11-25T01:00:07.609Z,3.93
2022-11-25T01:01:09.377Z,3.80
2022-11-25T01:02:11.575Z,3.70
2022-11-25T01:03:12.971Z,3.93
2022-11-25T01:04:14.673Z,4.10
2022-11-25T01:05:16.104Z,3.97
2022-11-25T01:06:17.606Z,3.63
2022-11-25T01:07:19.234Z,4.20
2022-11-25T01:08:20.560Z,4.40
2022-11-25T01:09:22.325Z,3.23
2022-11-25T01:10:23.694Z,3.60
2022-11-25T01:11:25.165Z,3.80
2022-11-25T01:12:26.583Z,3.87
2022-11-25T01:13:28.251Z,3.93
2022-11-25T01:14:30.294Z,4.50
2022-11-25T01:15:31.617Z,4.20
2022-11-25T01:16:33.355Z,3.60
2022-11-25T01:17:34.719Z,3.90
2022-11-25T01:18:36.083Z,4.00
2022-11-25T01:19:40.543Z,3.37
2022-11-25T01:20:42.057Z,4.47
2022-11-25T01:21:43.597Z,3.87
2022-11-25T01:22:46.169Z,3.57
2022-11-25T01:23:48.479Z,4.00
2022-11-25T01:24:49.815Z,3.97
2022-11-25T01:25:54.409Z,3.53
2022-11-25T01:26:55.983Z,4.10
2022-11-25T01:27:57.292Z,3.83
2022-11-25T01:29:00.025Z,3.70
2022-11-25T01:30:01.354Z,3.63
2022-11-25T01:31:04.398Z,3.73
2022-11-25T01:32:08.371Z,3.70
2022-11-25T01:33:09.740Z,3.73
2022-11-25T01:34:11.034Z,3.57
2022-11-25T01:35:12.357Z,3.77
2022-11-25T01:36:15.433Z,3.63
2022-11-25T01:37:17.117Z,3.50
2022-11-25T01:38:18.406Z,3.77
2022-11-25T01:39:20.845Z,3.50
2022-11-25T01:40:22.248Z,4.13
2022-11-25T01:41:24.391Z,3.63
2022-11-25T01:42:27.982Z,3.63
2022-11-25T01:43:29.370Z,3.50
2022-11-25T01:44:32.559Z,3.67
2022-11-25T01:45:35.318Z,3.90
2022-11-25T01:46:46.707Z,4.13
2022-11-25T01:47:48.871Z,3.73
2022-11-25T01:48:53.086Z,4.10
2022-11-25T01:50:00.766Z,3.73
2022-11-25T01:51:02.411Z,3.13
2022-11-25T01:52:22.588Z,3.60
2022-11-25T01:53:24.160Z,4.20
2022-11-25T01:54:28.124Z,3.33
2022-11-25T01:55:30.797Z,3.33
2022-11-25T01:56:34.947Z,3.67
2022-11-25T01:57:45.868Z,3.83
2022-11-25T01:58:48.052Z,4.03
2022-11-25T01:59:51.784Z,4.20
2022-11-25T02:00:53.251Z,3.67
2022-11-25T02:01:54.851Z,4.33
2022-11-25T02:02:57.759Z,3.90
2022-11-25T02:04:00.473Z,4.10
2022-11-25T02:05:03.310Z,4.20
2022-11-25T02:06:08.981Z,3.90
2022-11-25T02:07:16.022Z,4.50
2022-11-25T02:08:19.125Z,3.40
2022-11-25T02:09:21.366Z,4.10
2022-11-25T02:10:25.716Z,4.43
2022-11-25T02:11:28.430Z,4.67
2022-11-25T02:12:30.071Z,4.33
2022-11-25T02:13:32.504Z,4.07
2022-11-25T02:14:35.825Z,3.90
2022-11-25T02:15:37.571Z,4.90
2022-11-25T02:16:39.217Z,4.13
2022-11-25T02:17:40.912Z,4.27
2022-11-25T02:18:42.488Z,4.60
2022-11-25T02:19:52.219Z,4.20
2022-11-25T02:20:53.632Z,4.43
2022-11-25T02:21:59.301Z,4.50
2022-11-25T02:23:03.917Z,4.10
2022-11-25T02:24:13.293Z,4.63
2022-11-25T02:25:15.070Z,4.93
2022-11-25T02:26:17.085Z,4.57
2022-11-25T02:27:18.990Z,4.37
2022-11-25T02:28:27.625Z,4.43
2022-11-25T02:29:29.222Z,4.50
2022-11-25T02:30:30.818Z,4.53
2022-11-25T02:31:33.849Z,5.07
2022-11-25T02:32:35.415Z,4.50
2022-11-25T02:33:36.832Z,4.30
2022-11-25T02:34:46.571Z,4.50
2022-11-25T02:35:49.988Z,4.30
2022-11-25T02:36:52.738Z,4.50
2022-11-25T02:37:56.644Z,5.13
2022-11-25T02:38:59.292Z,4.80
2022-11-25T02:40:03.468Z,4.43
2022-11-25T02:41:18.762Z,4.50
2022-11-25T02:42:24.787Z,4.90
2022-11-25T02:43:27.142Z,5.00
2022-11-25T02:44:28.788Z,5.20
2022-11-25T02:45:34.576Z,4.73
2022-11-25T02:46:35.987Z,4.27
2022-11-25T02:47:38.040Z,4.90
2022-11-25T02:49:07.273Z,4.80
2022-11-25T02:50:03.230Z,4.50
2022-11-25T02:51:05.577Z,4.90
2022-11-25T02:52:07.043Z,4.63
2022-11-25T02:53:08.672Z,4.10
2022-11-25T02:54:15.611Z,4.37
2022-11-25T02:55:17.336Z,4.60
2022-11-25T02:56:19.998Z,4.60
2022-11-25T02:57:21.496Z,4.33
2022-11-25T02:58:22.877Z,4.40
2022-11-25T02:59:24.308Z,4.73
2022-11-25T03:00:25.815Z,4.90
2022-11-25T03:01:28.076Z,4.23
2022-11-25T03:02:29.978Z,3.93
2022-11-25T03:03:31.473Z,4.87
2022-11-25T03:04:33.266Z,5.07
2022-11-25T03:05:34.670Z,4.73
2022-11-25T03:06:36.162Z,4.13
2022-11-25T03:07:37.598Z,4.37
2022-11-25T03:08:39.076Z,4.30
2022-11-25T03:09:43.711Z,4.40
2022-11-25T03:10:46.919Z,4.80
2022-11-25T03:12:08.085Z,4.50
2022-11-25T03:13:09.768Z,4.00
2022-11-25T03:14:14.224Z,4.30
2022-11-25T03:15:17.002Z,4.20
2022-11-25T03:16:19.397Z,4.87
2022-11-25T03:17:20.771Z,4.17
2022-11-25T03:18:22.154Z,4.20
2022-11-25T03:19:23.571Z,4.87
2022-11-25T03:20:26.784Z,4.30
2022-11-25T03:21:28.211Z,3.97
2022-11-25T03:22:29.535Z,4.30
2022-11-25T03:23:30.916Z,4.40
2022-11-25T03:24:32.553Z,4.23
2022-11-25T03:25:35.058Z,4.50
2022-11-25T03:26:37.395Z,4.30
2022-11-25T03:27:39.266Z,4.30
2022-11-25T03:28:40.868Z,4.80
2022-11-25T03:29:43.257Z,4.30
2022-11-25T03:30:44.712Z,4.57
2022-11-25T03:31:46.433Z,4.57
2022-11-25T03:32:48.157Z,4.57
2022-11-25T03:33:49.573Z,4.57
2022-11-25T03:34:50.949Z,3.80
2022-11-25T03:35:52.300Z,4.10
2022-11-25T03:36:55.032Z,4.67
2022-11-25T03:37:59.071Z,4.30
2022-11-25T03:39:01.256Z,4.53
2022-11-25T03:40:03.512Z,4.50
2022-11-25T03:41:05.199Z,4.20
2022-11-25T03:42:06.802Z,4.40
2022-11-25T03:43:08.147Z,4.73
2022-11-25T03:44:09.539Z,4.50
2022-11-25T03:45:13.514Z,4.60
2022-11-25T03:46:15.236Z,4.10
2022-11-25T03:47:16.989Z,4.40
2022-11-25T03:48:18.683Z,4.40
2022-11-25T03:49:21.849Z,4.07
2022-11-25T03:50:23.475Z,4.30
2022-11-25T03:51:25.093Z,4.33
2022-11-25T03:52:28.406Z,4.20
2022-11-25T03:53:30.685Z,4.13
2022-11-25T03:54:35.124Z,4.10
2022-11-25T03:55:50.430Z,4.07
2022-11-25T03:56:54.843Z,4.00
2022-11-25T03:57:56.225Z,4.00
2022-11-25T03:58:58.824Z,4.30
2022-11-25T04:00:01.871Z,4.07
2022-11-25T04:01:07.867Z,4.27
2022-11-25T04:02:09.400Z,4.17
2022-11-25T04:03:11.305Z,4.20
2022-11-25T04:04:13.934Z,4.23
2022-11-25T04:05:15.336Z,3.70
2022-11-25T04:06:19.944Z,4.27
2022-11-25T04:07:22.582Z,4.07
2022-11-25T04:08:23.956Z,4.10
2022-11-25T04:09:25.806Z,3.90
2022-11-25T04:10:28.638Z,4.10
2022-11-25T04:11:48.884Z,4.13
2022-11-25T04:12:52.376Z,4.60
2022-11-25T04:13:57.299Z,4.20
2022-11-25T04:14:58.655Z,3.90
2022-11-25T04:16:00.046Z,4.13
2022-11-25T04:17:01.809Z,3.70
2022-11-25T04:18:03.397Z,4.30
2022-11-25T04:19:06.667Z,4.50
2022-11-25T04:20:08.382Z,3.90
2022-11-25T04:21:09.755Z,4.50
2022-11-25T04:22:11.399Z,4.10
2022-11-25T04:23:15.838Z,4.33
2022-11-25T04:24:24.740Z,3.90
2022-11-25T04:25:26.370Z,4.10
2022-11-25T04:26:27.803Z,4.93
2022-11-25T04:27:29.146Z,4.00
2022-11-25T04:28:30.482Z,4.17
2022-11-25T04:29:32.256Z,4.27
2022-11-25T04:30:37.294Z,4.70
2022-11-25T04:31:38.780Z,4.50
2022-11-25T04:32:40.164Z,4.60
2022-11-25T04:33:43.890Z,4.10
2022-11-25T04:34:47.404Z,4.00
2022-11-25T04:35:48.864Z,4.67
2022-11-25T04:36:50.679Z,5.00
2022-11-25T04:37:52.336Z,4.30
2022-11-25T04:38:53.731Z,3.97
2022-11-25T04:39:56.757Z,4.60
2022-11-25T04:40:58.258Z,4.00
2022-11-25T04:42:31.493Z,4.40
2022-11-25T04:43:34.184Z,4.20
2022-11-25T04:44:40.307Z,3.87
2022-11-25T04:47:03.580Z,3.97
2022-11-25T04:48:05.663Z,4.57
2022-11-25T04:49:07.322Z,4.23
2022-11-25T04:50:12.187Z,4.43
2022-11-25T04:51:22.785Z,3.87
2022-11-25T04:52:28.084Z,4.20
2022-11-25T04:53:29.457Z,4.03
2022-11-25T04:54:30.885Z,4.20
2022-11-25T04:55:34.089Z,4.10
2022-11-25T04:56:39.992Z,4.27
2022-11-25T04:57:42.289Z,3.77
2022-11-25T04:59:06.074Z,4.03
2022-11-25T05:00:10.911Z,4.13
2022-11-25T05:01:13.123Z,4.50
2022-11-25T05:02:20.032Z,3.83
2022-11-25T05:03:35.053Z,4.20
2022-11-25T05:04:36.809Z,4.03
2022-11-25T05:05:39.187Z,3.63
2022-11-25T05:06:40.504Z,4.00
2022-11-25T05:07:42.675Z,4.17
2022-11-25T05:08:44.863Z,3.77
2022-11-25T05:09:47.089Z,4.00
2022-11-25T05:10:59.044Z,4.30
2022-11-25T05:12:00.447Z,3.80
2022-11-25T05:13:01.959Z,3.90
2022-11-25T05:14:04.760Z,3.80
2022-11-25T05:15:06.537Z,3.90
2022-11-25T05:16:10.226Z,4.47
2022-11-25T05:17:13.840Z,3.70
2022-11-25T05:18:15.237Z,3.70
2022-11-25T05:19:20.021Z,4.10
2022-11-25T05:20:21.903Z,3.80
2022-11-25T05:21:23.337Z,3.80
2022-11-25T05:22:26.612Z,3.93
2022-11-25T05:23:28.043Z,4.20
2022-11-25T05:24:29.410Z,4.27
2022-11-25T05:25:31.999Z,4.00
2022-11-25T05:26:51.538Z,4.10
2022-11-25T05:27:53.453Z,4.00
2022-11-25T05:28:54.813Z,4.00
2022-11-25T05:29:56.441Z,3.80
2022-11-25T05:30:59.171Z,4.07
2022-11-25T05:32:00.686Z,4.47
2022-11-25T05:33:02.186Z,4.07
2022-11-25T05:34:03.866Z,4.23
2022-11-25T05:35:05.561Z,4.17
2022-11-25T05:36:07.131Z,4.27
2022-11-25T05:37:21.269Z,3.97
2022-11-25T05:38:30.685Z,4.10
2022-11-25T05:39:32.573Z,3.80
2022-11-25T05:41:00.201Z,4.30
2022-11-25T05:42:02.080Z,4.00
2022-11-25T05:43:03.486Z,3.93
2022-11-25T05:44:06.781Z,3.60
2022-11-25T05:45:08.969Z,4.00
2022-11-25T05:46:10.849Z,3.80
2022-11-25T05:47:18.625Z,3.50
2022-11-25T05:48:19.954Z,3.80
2022-11-25T05:49:21.525Z,3.57
2022-11-25T05:50:24.442Z,3.53
2022-11-25T05:51:38.157Z,3.87
2022-11-25T05:52:39.851Z,3.93
2022-11-25T05:53:41.232Z,4.27
2022-11-25T05:54:42.622Z,4.03
2022-11-25T05:55:44.200Z,4.10
2022-11-25T05:56:56.448Z,4.30
2022-11-25T05:58:07.728Z,3.83
2022-11-25T05:59:09.676Z,4.17
2022-11-25T06:00:26.261Z,3.67
2022-11-25T06:01:28.871Z,4.70
2022-11-25T06:02:30.377Z,4.63
2022-11-25T06:03:31.893Z,4.43
2022-11-25T06:04:35.161Z,4.57
2022-11-25T06:05:38.285Z,4.70
2022-11-25T06:06:39.597Z,4.33
2022-11-25T06:07:42.110Z,4.13
2022-11-25T06:08:43.631Z,4.37
2022-11-25T06:09:45.590Z,3.83
2022-11-25T06:10:46.974Z,4.43
2022-11-25T06:11:48.320Z,4.47
2022-11-25T06:12:49.660Z,4.53
2022-11-25T06:13:51.145Z,4.30
2022-11-25T06:14:52.483Z,4.03
2022-11-25T06:15:53.901Z,4.47
2022-11-25T06:16:59.768Z,4.20
2022-11-25T06:18:15.625Z,4.70
2022-11-25T06:19:17.178Z,4.30
2022-11-25T06:20:18.555Z,4.23
2022-11-25T06:21:20.506Z,4.10
2022-11-25T06:22:21.920Z,4.47
2022-11-25T06:23:24.911Z,4.60
2022-11-25T06:24:26.235Z,4.10
2022-11-25T06:25:33.536Z,4.23
2022-11-25T06:26:35.507Z,4.07
2022-11-25T06:27:57.265Z,4.07
2022-11-25T06:28:58.653Z,4.00
2022-11-25T06:30:00.206Z,4.37
2022-11-25T06:31:06.184Z,4.30
2022-11-25T06:32:12.489Z,4.10
2022-11-25T06:33:22.198Z,4.10
2022-11-25T06:34:24.111Z,4.13
2022-11-25T06:35:25.882Z,3.80
2022-11-25T06:36:30.965Z,4.47
2022-11-25T06:37:32.607Z,3.93
2022-11-25T06:38:34.504Z,4.00
2022-11-25T06:39:35.817Z,4.10
2022-11-25T06:40:37.210Z,4.30
2022-11-25T06:41:38.541Z,4.33
2022-11-25T06:42:40.024Z,4.30
2022-11-25T06:43:41.547Z,4.33
2022-11-25T06:44:42.950Z,4.43
2022-11-25T06:45:44.265Z,4.30
2022-11-25T06:46:45.682Z,4.20
2022-11-25T06:47:47.125Z,4.33
2022-11-25T06:48:48.453Z,4.70
2022-11-25T06:49:50.148Z,4.00
2022-11-25T06:50:58.048Z,4.00
2022-11-25T06:51:59.396Z,4.40
2022-11-25T06:53:01.388Z,4.27
2022-11-25T06:54:02.706Z,3.90
2022-11-25T06:55:04.241Z,4.03
2022-11-25T06:56:08.885Z,4.10
2022-11-25T06:57:11.059Z,4.67
2022-11-25T06:58:34.340Z,4.67
2022-11-25T06:59:33.751Z,4.70
2022-11-25T07:00:35.550Z,4.93
2022-11-25T07:01:37.132Z,4.20
2022-11-25T07:02:44.117Z,4.50
2022-11-25T07:03:49.266Z,3.67
2022-11-25T07:04:50.634Z,4.30
2022-11-25T07:05:51.983Z,4.63
2022-11-25T07:06:53.325Z,4.90
2022-11-25T07:07:54.658Z,4.30
2022-11-25T07:08:56.601Z,4.73
2022-11-25T07:09:57.940Z,4.60
2022-11-25T07:11:03.245Z,4.70
2022-11-25T07:12:05.778Z,4.90
2022-11-25T07:13:07.108Z,4.47
2022-11-25T07:14:15.440Z,4.77
2022-11-25T07:15:17.196Z,4.40
2022-11-25T07:16:18.650Z,4.60
2022-11-25T07:17:20.147Z,4.30
2022-11-25T07:18:21.536Z,3.93
2022-11-25T07:19:22.916Z,4.50
2022-11-25T07:20:25.263Z,4.30
2022-11-25T07:21:26.589Z,4.37
2022-11-25T07:22:27.923Z,4.50
2022-11-25T07:23:29.272Z,4.87
2022-11-25T07:24:30.664Z,5.47
2022-11-25T07:25:32.881Z,5.53
2022-11-25T07:26:35.446Z,5.80
2022-11-25T07:27:36.946Z,5.67
2022-11-25T07:28:38.796Z,5.77
2022-11-25T07:30:19.166Z,4.93
2022-11-25T07:32:27.566Z,4.60
2022-11-25T07:33:28.943Z,4.80
2022-11-25T07:34:30.382Z,3.73
2022-11-25T07:35:31.764Z,4.07
2022-11-25T07:36:34.081Z,4.17
2022-11-25T07:37:35.399Z,4.40
2022-11-25T07:38:39.022Z,5.07
2022-11-25T07:39:43.471Z,5.30
2022-11-25T07:40:44.778Z,4.43
2022-11-25T07:41:46.550Z,4.67
2022-11-25T07:42:48.010Z,3.87
2022-11-25T07:43:52.240Z,4.50
2022-11-25T07:44:56.543Z,3.97
2022-11-25T07:46:16.465Z,4.17
2022-11-25T07:47:18.154Z,3.97
2022-11-25T07:48:19.460Z,4.00
2022-11-25T07:49:21.996Z,4.40
2022-11-25T07:50:23.410Z,4.63
2022-11-25T07:51:24.753Z,4.63
2022-11-25T07:52:26.066Z,6.00
2022-11-25T07:53:27.367Z,6.43
2022-11-25T07:54:28.733Z,6.30
2022-11-25T07:55:30.070Z,6.13
2022-11-25T07:56:33.084Z,6.20
2022-11-25T07:57:34.754Z,5.67
2022-11-25T07:58:36.161Z,5.60
2022-11-25T07:59:41.250Z,5.30
2022-11-25T08:00:42.624Z,5.40
2022-11-25T08:01:44.091Z,5.50
2022-11-25T08:02:45.669Z,4.20
2022-11-25T08:03:48.115Z,4.13
2022-11-25T08:04:49.459Z,4.60
2022-11-25T08:05:50.844Z,3.93
2022-11-25T08:06:52.794Z,4.10
2022-11-25T08:07:54.237Z,4.83
2022-11-25T08:08:57.064Z,4.53
2022-11-25T08:09:58.428Z,4.90
2022-11-25T08:10:59.888Z,4.60
2022-11-25T08:12:01.243Z,4.47
2022-11-25T08:13:02.580Z,4.60
2022-11-25T08:14:04.193Z,4.87
2022-11-25T08:15:05.938Z,4.90
2022-11-25T08:16:07.971Z,6.03
2022-11-25T08:17:09.475Z,5.17
2022-11-25T08:18:10.871Z,5.97
2022-11-25T08:19:13.959Z,5.13
2022-11-25T08:20:15.526Z,5.70
2022-11-25T08:21:17.008Z,5.00
2022-11-25T08:22:18.424Z,5.00
2022-11-25T08:23:19.800Z,4.87
2022-11-25T08:24:21.184Z,5.07
2022-11-25T08:25:22.514Z,5.17
2022-11-25T08:26:30.121Z,5.00
2022-11-25T08:27:31.435Z,4.83
2022-11-25T08:28:32.888Z,4.63
2022-11-25T08:29:34.413Z,4.50
2022-11-25T08:30:35.951Z,4.20
2022-11-25T08:31:38.070Z,4.13
2022-11-25T08:32:39.949Z,3.87
2022-11-25T08:33:41.295Z,4.30
2022-11-25T08:34:42.732Z,4.50
2022-11-25T08:35:52.753Z,4.97
2022-11-25T08:36:54.231Z,4.20
2022-11-25T08:37:55.753Z,4.17
2022-11-25T08:38:58.092Z,4.30
2022-11-25T08:40:00.049Z,4.37
2022-11-25T08:41:01.686Z,4.67
2022-11-25T08:42:04.570Z,4.83
2022-11-25T08:43:05.972Z,5.57
2022-11-25T08:44:07.992Z,4.60
2022-11-25T08:45:09.705Z,4.80
2022-11-25T08:46:12.936Z,4.57
2022-11-25T08:47:16.501Z,5.03
2022-11-25T08:48:18.723Z,4.87
2022-11-25T08:49:20.104Z,5.70
2022-11-25T08:50:22.052Z,4.70
2022-11-25T08:51:24.883Z,4.70
2022-11-25T08:52:28.681Z,4.43
2022-11-25T08:53:29.981Z,4.40
2022-11-25T08:54:31.290Z,4.40
2022-11-25T08:55:32.752Z,4.47
2022-11-25T08:56:35.509Z,4.40
2022-11-25T08:57:36.863Z,3.97
2022-11-25T08:58:38.380Z,4.23
2022-11-25T08:59:40.570Z,4.60
2022-11-25T09:00:43.028Z,4.13
2022-11-25T09:01:44.420Z,3.90
2022-11-25T09:02:45.924Z,3.93
2022-11-25T09:03:50.662Z,4.07
2022-11-25T09:04:52.537Z,4.13
2022-11-25T09:05:54.264Z,3.90
2022-11-25T09:06:55.645Z,4.00
2022-11-25T09:07:57.067Z,3.60
2022-11-25T09:08:59.055Z,3.73
2022-11-25T09:10:00.411Z,3.97
2022-11-25T09:11:01.950Z,4.40
2022-11-25T09:12:03.418Z,3.70
2022-11-25T09:13:04.743Z,3.53
2022-11-25T09:14:06.157Z,4.00
2022-11-25T09:15:07.989Z,4.20
2022-11-25T09:16:09.999Z,3.30
2022-11-25T09:17:12.065Z,3.50
2022-11-25T09:18:14.336Z,4.60
2022-11-25T09:19:15.879Z,3.93
2022-11-25T09:20:17.358Z,4.70
2022-11-25T09:21:18.856Z,5.23
2022-11-25T09:22:20.266Z,3.90
2022-11-25T09:23:23.289Z,5.90
2022-11-25T09:24:25.102Z,4.47
2022-11-25T09:25:27.482Z,3.97
2022-11-25T09:26:30.424Z,3.83
2022-11-25T09:27:32.077Z,5.13
2022-11-25T09:28:34.694Z,5.90
2022-11-25T09:29:36.309Z,5.13
2022-11-25T09:30:37.950Z,5.63
2022-11-25T09:31:39.587Z,4.70
2022-11-25T09:32:40.976Z,3.70
2022-11-25T09:33:42.366Z,3.63
2022-11-25T09:34:43.755Z,3.50
2022-11-25T09:35:45.627Z,3.67
2022-11-25T09:36:47.112Z,4.30
2022-11-25T09:37:48.554Z,4.67
2022-11-25T09:38:50.166Z,4.40
2022-11-25T09:39:56.425Z,4.87
2022-11-25T09:41:07.602Z,4.43
2022-11-25T09:42:39.517Z,4.77
2022-11-25T09:44:20.570Z,3.97
2022-11-25T09:45:43.582Z,4.33
2022-11-25T09:46:48.128Z,4.27
2022-11-25T09:48:01.663Z,4.57
2022-11-25T09:49:09.159Z,5.47
2022-11-25T09:50:19.954Z,5.33
2022-11-25T09:51:24.940Z,4.97
2022-11-25T09:52:45.013Z,4.43
2022-11-25T09:53:54.012Z,4.40
2022-11-25T09:54:58.796Z,4.13
2022-11-25T09:56:03.024Z,4.57
2022-11-25T09:57:10.952Z,4.70
2022-11-25T09:58:31.339Z,5.37
2022-11-25T09:59:39.136Z,4.17
2022-11-25T10:00:42.251Z,3.80
2022-11-25T10:01:49.111Z,5.07
2022-11-25T10:03:00.255Z,6.83
2022-11-25T10:04:04.450Z,8.53
2022-11-25T10:05:08.477Z,9.93
2022-11-25T10:06:28.599Z,7.83
2022-11-25T10:07:34.184Z,5.40
2022-11-25T10:08:38.600Z,4.50
2022-11-25T10:09:40.290Z,4.47
2022-11-25T10:10:44.527Z,4.30
2022-11-25T10:11:55.172Z,4.03
2022-11-25T10:12:57.587Z,5.00
2022-11-25T10:13:58.903Z,7.03
2022-11-25T10:15:05.487Z,11.03
2022-11-25T10:16:08.254Z,7.00
2022-11-25T10:17:09.588Z,5.37
2022-11-25T10:18:15.375Z,4.50
2022-11-25T10:19:19.714Z,4.77
2022-11-25T10:20:25.794Z,5.40
2022-11-25T10:21:27.869Z,4.57
2022-11-25T10:22:41.268Z,4.53
2022-11-25T10:23:42.670Z,4.90
2022-11-25T10:24:44.580Z,4.07
2022-11-25T10:25:48.255Z,4.47
2022-11-25T10:26:55.277Z,4.57
2022-11-25T10:28:04.386Z,4.73
2022-11-25T10:29:20.047Z,4.30
2022-11-25T10:30:23.788Z,4.57
2022-11-25T10:31:37.672Z,4.67
2022-11-25T10:32:45.307Z,5.03
2022-11-25T10:33:54.619Z,4.37
2022-11-25T10:35:00.567Z,4.50
2022-11-25T10:36:08.251Z,4.37
2022-11-25T10:37:14.173Z,4.33
2022-11-25T10:38:19.952Z,4.43
2022-11-25T10:39:29.932Z,4.30
2022-11-25T10:40:31.370Z,4.30
2022-11-25T10:41:42.895Z,4.33
2022-11-25T10:42:44.301Z,4.53
2022-11-25T10:43:45.955Z,4.90
2022-11-25T10:44:47.388Z,5.93
2022-11-25T10:46:01.407Z,9.73
2022-11-25T10:47:21.136Z,10.60
2022-11-25T10:48:33.818Z,8.53
2022-11-25T10:49:37.967Z,7.00
2022-11-25T10:50:48.167Z,6.50
2022-11-25T10:51:50.147Z,5.90
2022-11-25T10:52:51.907Z,5.50
2022-11-25T10:54:27.980Z,4.70
2022-11-25T10:55:31.566Z,4.50
2022-11-25T10:56:42.071Z,4.90
2022-11-25T10:57:43.828Z,4.00
2022-11-25T10:58:46.226Z,5.07
2022-11-25T10:59:58.445Z,4.23
2022-11-25T11:01:14.466Z,4.70
2022-11-25T11:02:15.897Z,4.40
2022-11-25T11:03:25.106Z,4.93
2022-11-25T11:04:26.548Z,4.37
2022-11-25T11:05:30.268Z,4.80
2022-11-25T11:06:32.038Z,4.60
2022-11-25T11:07:34.912Z,4.80
2022-11-25T11:08:37.681Z,4.47
2022-11-25T11:09:43.698Z,4.60
2022-11-25T11:10:45.958Z,4.33
2022-11-25T11:11:48.531Z,4.63
2022-11-25T11:13:00.220Z,4.43
2022-11-25T11:14:07.813Z,4.70
2022-11-25T11:15:22.864Z,4.83
2022-11-25T11:16:33.307Z,4.10
2022-11-25T11:17:37.021Z,4.47
2022-11-25T11:18:38.950Z,5.00
2022-11-25T11:19:40.625Z,4.30
2022-11-25T11:20:50.392Z,4.37
2022-11-25T11:21:52.456Z,4.37
2022-11-25T11:23:09.421Z,4.80
2022-11-25T11:24:26.250Z,4.50
2022-11-25T11:25:31.720Z,4.80
2022-11-25T11:26:35.389Z,5.20
2022-11-25T11:27:37.883Z,4.43
2022-11-25T11:28:40.542Z,4.57
2022-11-25T11:29:42.219Z,4.57
2022-11-25T11:30:53.703Z,5.00
2022-11-25T11:31:59.223Z,5.33
2022-11-25T11:33:06.694Z,4.90
2022-11-25T11:34:11.498Z,4.70
2022-11-25T11:35:13.101Z,5.40
2022-11-25T11:36:31.167Z,4.87
2022-11-25T11:37:35.933Z,4.73
2022-11-25T11:38:47.345Z,4.63
2022-11-25T11:40:00.974Z,5.10
2022-11-25T11:41:20.821Z,5.03
2022-11-25T11:42:28.503Z,5.33
2022-11-25T11:43:48.533Z,5.53
2022-11-25T11:45:12.603Z,5.87
2022-11-25T11:46:23.276Z,5.73
2022-11-25T11:47:35.883Z,5.30
2022-11-25T11:48:37.256Z,5.00
2022-11-25T11:49:47.673Z,5.10
2022-11-25T11:50:51.049Z,5.07
2022-11-25T11:52:15.449Z,5.00
2022-11-25T11:53:22.573Z,4.83
2022-11-25T11:54:33.116Z,4.17
2022-11-25T11:55:39.735Z,5.00
2022-11-25T11:56:52.038Z,4.80
2022-11-25T11:58:22.508Z,4.80
2022-11-25T11:59:23.894Z,5.57
2022-11-25T12:00:27.076Z,5.23
2022-11-25T12:01:38.528Z,5.87
2022-11-25T12:02:58.884Z,6.07
2022-11-25T12:04:03.512Z,6.03
2022-11-25T12:05:12.191Z,5.80
2022-11-25T12:06:14.233Z,5.40
2022-11-25T12:07:34.725Z,5.70
2022-11-25T12:08:42.629Z,5.80
2022-11-25T12:09:48.312Z,5.20
2022-11-25T12:10:54.001Z,5.10
2022-11-25T12:11:58.926Z,4.97
2022-11-25T12:13:26.143Z,4.70
2022-11-25T12:14:51.912Z,4.80
2022-11-25T12:16:19.052Z,5.17
2022-11-25T12:17:36.190Z,6.03
2022-11-25T12:18:42.101Z,5.40
2022-11-25T12:19:48.205Z,6.00
2022-11-25T12:21:07.752Z,6.13
2022-11-25T12:22:15.060Z,6.23
2022-11-25T12:23:25.982Z,7.07
2022-11-25T12:24:31.815Z,6.33
2022-11-25T12:25:37.872Z,6.57
2022-11-25T12:26:59.280Z,5.80
2022-11-25T12:28:24.300Z,6.30
2022-11-25T12:29:36.009Z,6.17
2022-11-25T12:30:40.662Z,5.63
2022-11-25T12:31:44.338Z,5.40
2022-11-25T12:32:45.824Z,5.77
2022-11-25T12:33:56.683Z,5.63
2022-11-25T12:35:01.678Z,5.60
2022-11-25T12:36:08.982Z,5.80
2022-11-25T12:37:15.256Z,6.97
2022-11-25T12:38:23.499Z,6.53
2022-11-25T12:39:34.482Z,6.90
2022-11-25T12:40:54.423Z,6.53
2022-11-25T12:42:03.392Z,5.60
2022-11-25T12:43:25.029Z,6.00
2022-11-25T12:44:26.398Z,5.73
2022-11-25T12:45:28.154Z,5.50
2022-11-25T12:46:34.665Z,5.30
2022-11-25T12:47:36.083Z,5.73
2022-11-25T12:48:39.560Z,5.47
2022-11-25T12:49:42.783Z,6.60
2022-11-25T12:50:47.487Z,6.23
2022-11-25T12:52:01.083Z,6.03
2022-11-25T12:53:24.290Z,5.60
2022-11-25T12:54:43.718Z,5.27
2022-11-25T12:55:45.317Z,4.90
2022-11-25T12:57:15.107Z,5.27
2022-11-25T12:58:28.544Z,5.33
2022-11-25T12:59:29.864Z,5.40
2022-11-25T13:00:42.511Z,5.67
2022-11-25T13:02:02.750Z,5.37
2022-11-25T13:03:22.363Z,5.03
2022-11-25T13:04:23.679Z,5.33
2022-11-25T13:05:40.182Z,5.57
2022-11-25T13:07:00.992Z,5.30
2022-11-25T13:08:08.566Z,5.23
2022-11-25T13:09:28.762Z,5.20
2022-11-25T13:10:40.684Z,5.27
2022-11-25T13:11:57.654Z,5.07
2022-11-25T13:13:17.928Z,5.07
2022-11-25T13:14:20.275Z,4.70
2022-11-25T13:15:51.821Z,5.40
2022-11-25T13:16:54.692Z,4.93
2022-11-25T13:17:58.406Z,5.10
2022-11-25T13:18:59.875Z,5.33
2022-11-25T13:20:20.101Z,4.87
2022-11-25T13:21:24.011Z,5.40
2022-11-25T13:22:30.194Z,4.67
2022-11-25T13:23:45.942Z,5.40
2022-11-25T13:24:50.406Z,5.33
2022-11-25T13:25:52.366Z,4.73
2022-11-25T13:26:54.096Z,5.40
2022-11-25T13:27:55.528Z,5.17
2022-11-25T13:28:57.949Z,4.13
2022-11-25T13:30:00.170Z,5.50
2022-11-25T13:31:13.861Z,5.43
2022-11-25T13:32:25.880Z,5.47
2022-11-25T13:33:27.181Z,5.10
2022-11-25T13:34:29.422Z,5.47
2022-11-25T13:35:31.494Z,5.13
2022-11-25T13:36:49.718Z,5.53
2022-11-25T13:37:51.244Z,5.10
2022-11-25T13:38:52.601Z,5.70
2022-11-25T13:40:13.896Z,5.23
2022-11-25T13:41:15.192Z,5.80
2022-11-25T13:42:25.039Z,5.03
2022-11-25T13:43:26.416Z,5.13
2022-11-25T13:44:32.222Z,5.40
2022-11-25T13:45:35.042Z,5.40
2022-11-25T13:46:39.672Z,5.17
2022-11-25T13:47:42.803Z,4.67
2022-11-25T13:48:44.526Z,5.90
2022-11-25T13:50:00.362Z,5.27
2022-11-25T13:51:14.228Z,5.07
2022-11-25T13:52:15.732Z,5.60
2022-11-25T13:53:26.302Z,5.80
2022-11-25T13:54:33.643Z,4.50
2022-11-25T13:55:41.477Z,5.67
2022-11-25T13:56:42.857Z,5.67
2022-11-25T13:57:46.192Z,5.40
2022-11-25T13:59:06.443Z,5.77
2022-11-25T14:00:20.085Z,5.53
2022-11-25T14:01:29.852Z,5.67
2022-11-25T14:02:34.080Z,5.00
2022-11-25T14:03:43.744Z,5.80
2022-11-25T14:04:53.847Z,5.63
2022-11-25T14:06:07.509Z,5.63
2022-11-25T14:07:26.801Z,5.00
2022-11-25T14:08:46.810Z,5.00
2022-11-25T14:09:57.351Z,4.97
2022-11-25T14:11:07.040Z,5.40
2022-11-25T14:12:17.530Z,5.43
2022-11-25T14:13:36.934Z,5.70
2022-11-25T14:14:49.979Z,6.23
2022-11-25T14:16:17.697Z,5.67
2022-11-25T14:17:19.012Z,5.73
2022-11-25T14:20:04.439Z,5.63
2022-11-25T14:21:14.956Z,6.30
2022-11-25T14:22:19.386Z,6.70
2022-11-25T14:23:23.840Z,6.90
2022-11-25T14:24:37.431Z,7.37
2022-11-25T14:25:55.351Z,7.77
2022-11-25T14:26:57.738Z,6.73
2022-11-25T14:28:10.166Z,7.20
2022-11-25T14:29:20.494Z,6.30
2022-11-25T14:30:21.900Z,5.67
2022-11-25T14:31:30.678Z,5.77